sensor_id;sensor_type;location;lat;lon;timestamp;P1;durP1;ratioP1;P2;durP2;ratioP2
17398;SDS011;8817;48.170;8.592;2022-10-26T00:00:43;4.30;;;4.10;;
17398;SDS011;8817;48.170;8.592;2022-10-26T00:03:10;6.60;;;4.03;;
17398;SDS011;8817;48.170;8.592;2022-10-26T00:05:37;4.20;;;3.90;;
17398;SDS011;8817;48.170;8.592;2022-10-26T00:08:05;5.97;;;4.10;;
17398;SDS011;8817;48.170;8.592;2022-10-26T00:10:34;3.90;;;3.70;;
17398;SDS011;8817;48.170;8.592;2022-10-26T00:13:01;3.72;;;3.60;;
17398;SDS011;8817;48.170;8.592;2022-10-26T00:15:29;3.30;;;3.20;;
17398;SDS011;8817;48.170;8.592;2022-10-26T00:17:56;3.50;;;3.40;;
17398;SDS011;8817;48.170;8.592;2022-10-26T00:20:23;3.70;;;3.50;;
17398;SDS011;8817;48.170;8.592;2022-10-26T00:22:50;3.97;;;3.78;;
17398;SDS011;8817;48.170;8.592;2022-10-26T00:25:17;3.80;;;3.60;;
17398;SDS011;8817;48.170;8.592;2022-10-26T00:27:45;3.80;;;3.60;;
17398;SDS011;8817;48.170;8.592;2022-10-26T00:30:12;3.55;;;3.42;;
17398;SDS011;8817;48.170;8.592;2022-10-26T00:32:39;3.80;;;3.60;;
17398;SDS011;8817;48.170;8.592;2022-10-26T00:35:06;4.18;;;3.78;;
17398;SDS011;8817;48.170;8.592;2022-10-26T00:37:33;4.50;;;4.10;;
17398;SDS011;8817;48.170;8.592;2022-10-26T00:40:00;4.70;;;4.35;;
17398;SDS011;8817;48.170;8.592;2022-10-26T00:42:27;4.18;;;3.97;;
17398;SDS011;8817;48.170;8.592;2022-10-26T00:44:57;4.27;;;3.97;;
17398;SDS011;8817;48.170;8.592;2022-10-26T00:47:30;4.18;;;3.88;;
17398;SDS011;8817;48.170;8.592;2022-10-26T00:50:01;4.40;;;4.00;;
17398;SDS011;8817;48.170;8.592;2022-10-26T00:52:32;4.55;;;4.15;;
17398;SDS011;8817;48.170;8.592;2022-10-26T00:54:59;5.95;;;4.22;;
17398;SDS011;8817;48.170;8.592;2022-10-26T00:57:26;4.93;;;4.47;;
17398;SDS011;8817;48.170;8.592;2022-10-26T00:59:53;4.70;;;4.20;;
17398;SDS011;8817;48.170;8.592;2022-10-26T01:02:24;6.13;;;4.17;;
17398;SDS011;8817;48.170;8.592;2022-10-26T01:04:51;3.88;;;3.67;;
17398;SDS011;8817;48.170;8.592;2022-10-26T01:07:19;4.10;;;3.80;;
17398;SDS011;8817;48.170;8.592;2022-10-26T01:09:47;4.15;;;3.95;;
17398;SDS011;8817;48.170;8.592;2022-10-26T01:12:14;4.40;;;4.00;;
17398;SDS011;8817;48.170;8.592;2022-10-26T01:14:41;4.15;;;3.85;;
17398;SDS011;8817;48.170;8.592;2022-10-26T01:17:13;4.18;;;4.00;;
17398;SDS011;8817;48.170;8.592;2022-10-26T01:20:13;4.13;;;3.92;;
17398;SDS011;8817;48.170;8.592;2022-10-26T01:22:53;4.35;;;4.13;;
17398;SDS011;8817;48.170;8.592;2022-10-26T01:25:30;4.37;;;3.97;;
17398;SDS011;8817;48.170;8.592;2022-10-26T01:28:11;4.13;;;3.83;;
17398;SDS011;8817;48.170;8.592;2022-10-26T01:30:46;4.20;;;4.00;;
17398;SDS011;8817;48.170;8.592;2022-10-26T01:33:21;4.25;;;3.95;;
17398;SDS011;8817;48.170;8.592;2022-10-26T01:36:01;3.97;;;3.78;;
17398;SDS011;8817;48.170;8.592;2022-10-26T01:38:38;4.32;;;3.92;;
17398;SDS011;8817;48.170;8.592;2022-10-26T01:41:12;4.18;;;3.80;;
17398;SDS011;8817;48.170;8.592;2022-10-26T01:43:45;4.13;;;3.87;;
17398;SDS011;8817;48.170;8.592;2022-10-26T01:46:18;4.25;;;3.90;;
17398;SDS011;8817;48.170;8.592;2022-10-26T01:48:49;4.00;;;3.80;;
17398;SDS011;8817;48.170;8.592;2022-10-26T01:51:20;5.45;;;3.80;;
17398;SDS011;8817;48.170;8.592;2022-10-26T01:53:48;4.30;;;3.95;;
17398;SDS011;8817;48.170;8.592;2022-10-26T01:56:17;3.92;;;3.72;;
17398;SDS011;8817;48.170;8.592;2022-10-26T02:05:00;4.28;;;4.07;;
17398;SDS011;8817;48.170;8.592;2022-10-26T02:07:37;3.93;;;3.73;;
17398;SDS011;8817;48.170;8.592;2022-10-26T02:10:11;3.90;;;3.70;;
17398;SDS011;8817;48.170;8.592;2022-10-26T02:12:49;3.78;;;3.63;;
17398;SDS011;8817;48.170;8.592;2022-10-26T02:15:25;3.70;;;3.60;;
17398;SDS011;8817;48.170;8.592;2022-10-26T02:18:00;3.93;;;3.73;;
17398;SDS011;8817;48.170;8.592;2022-10-26T02:20:33;3.60;;;3.40;;
17398;SDS011;8817;48.170;8.592;2022-10-26T02:23:06;4.30;;;3.47;;
17398;SDS011;8817;48.170;8.592;2022-10-26T02:25:34;3.60;;;3.40;;
17398;SDS011;8817;48.170;8.592;2022-10-26T02:28:06;3.65;;;3.47;;
17398;SDS011;8817;48.170;8.592;2022-10-26T02:30:36;3.70;;;3.50;;
17398;SDS011;8817;48.170;8.592;2022-10-26T02:33:08;3.80;;;3.60;;
17398;SDS011;8817;48.170;8.592;2022-10-26T02:35:37;3.97;;;3.67;;
17398;SDS011;8817;48.170;8.592;2022-10-26T02:38:08;3.60;;;3.35;;
17398;SDS011;8817;48.170;8.592;2022-10-26T02:40:37;3.63;;;3.40;;
17398;SDS011;8817;48.170;8.592;2022-10-26T02:43:05;3.60;;;3.40;;
17398;SDS011;8817;48.170;8.592;2022-10-26T02:45:36;3.55;;;3.45;;
17398;SDS011;8817;48.170;8.592;2022-10-26T02:48:09;3.37;;;3.27;;
17398;SDS011;8817;48.170;8.592;2022-10-26T02:50:42;3.63;;;3.50;;
17398;SDS011;8817;48.170;8.592;2022-10-26T02:53:17;3.80;;;3.67;;
17398;SDS011;8817;48.170;8.592;2022-10-26T02:55:51;3.87;;;3.70;;
17398;SDS011;8817;48.170;8.592;2022-10-26T02:58:18;4.93;;;3.40;;
17398;SDS011;8817;48.170;8.592;2022-10-26T03:00:50;3.72;;;3.60;;
17398;SDS011;8817;48.170;8.592;2022-10-26T03:03:19;3.73;;;3.60;;
17398;SDS011;8817;48.170;8.592;2022-10-26T03:05:47;3.78;;;3.58;;
17398;SDS011;8817;48.170;8.592;2022-10-26T03:08:14;4.25;;;3.90;;
17398;SDS011;8817;48.170;8.592;2022-10-26T03:10:42;4.18;;;4.00;;
17398;SDS011;8817;48.170;8.592;2022-10-26T03:13:10;4.20;;;4.00;;
17398;SDS011;8817;48.170;8.592;2022-10-26T03:15:38;4.38;;;3.95;;
17398;SDS011;8817;48.170;8.592;2022-10-26T03:18:06;4.50;;;4.20;;
17398;SDS011;8817;48.170;8.592;2022-10-26T03:20:34;6.27;;;4.20;;
17398;SDS011;8817;48.170;8.592;2022-10-26T03:23:01;7.97;;;4.13;;
17398;SDS011;8817;48.170;8.592;2022-10-26T03:25:28;4.43;;;4.22;;
17398;SDS011;8817;48.170;8.592;2022-10-26T03:27:55;5.50;;;4.30;;
17398;SDS011;8817;48.170;8.592;2022-10-26T03:30:23;4.28;;;4.07;;
17398;SDS011;8817;48.170;8.592;2022-10-26T03:32:50;4.17;;;4.00;;
17398;SDS011;8817;48.170;8.592;2022-10-26T03:35:17;7.03;;;4.40;;
17398;SDS011;8817;48.170;8.592;2022-10-26T03:37:45;4.35;;;4.10;;
17398;SDS011;8817;48.170;8.592;2022-10-26T03:40:12;4.60;;;4.30;;
17398;SDS011;8817;48.170;8.592;2022-10-26T03:42:39;4.30;;;4.10;;
17398;SDS011;8817;48.170;8.592;2022-10-26T03:45:07;4.20;;;4.00;;
17398;SDS011;8817;48.170;8.592;2022-10-26T03:47:39;4.65;;;3.88;;
17398;SDS011;8817;48.170;8.592;2022-10-26T03:50:09;4.47;;;4.10;;
17398;SDS011;8817;48.170;8.592;2022-10-26T03:52:36;4.00;;;3.90;;
17398;SDS011;8817;48.170;8.592;2022-10-26T03:55:05;3.97;;;3.88;;
17398;SDS011;8817;48.170;8.592;2022-10-26T03:57:33;4.90;;;4.40;;
17398;SDS011;8817;48.170;8.592;2022-10-26T04:00:00;4.55;;;4.35;;
17398;SDS011;8817;48.170;8.592;2022-10-26T04:02:27;4.68;;;4.45;;
17398;SDS011;8817;48.170;8.592;2022-10-26T04:04:54;4.83;;;4.40;;
17398;SDS011;8817;48.170;8.592;2022-10-26T04:07:21;4.97;;;4.53;;
17398;SDS011;8817;48.170;8.592;2022-10-26T04:09:48;4.40;;;4.20;;
17398;SDS011;8817;48.170;8.592;2022-10-26T04:12:16;4.57;;;4.37;;
17398;SDS011;8817;48.170;8.592;2022-10-26T04:14:43;4.70;;;4.40;;
17398;SDS011;8817;48.170;8.592;2022-10-26T04:17:10;4.10;;;4.00;;
17398;SDS011;8817;48.170;8.592;2022-10-26T04:19:37;4.10;;;3.93;;
17398;SDS011;8817;48.170;8.592;2022-10-26T04:22:03;4.18;;;3.97;;
17398;SDS011;8817;48.170;8.592;2022-10-26T04:24:30;4.60;;;4.30;;
17398;SDS011;8817;48.170;8.592;2022-10-26T04:26:57;4.57;;;4.30;;
17398;SDS011;8817;48.170;8.592;2022-10-26T04:29:25;3.90;;;3.80;;
17398;SDS011;8817;48.170;8.592;2022-10-26T04:31:52;4.47;;;4.28;;
17398;SDS011;8817;48.170;8.592;2022-10-26T04:34:19;4.30;;;4.10;;
17398;SDS011;8817;48.170;8.592;2022-10-26T04:36:46;4.70;;;4.40;;
17398;SDS011;8817;48.170;8.592;2022-10-26T04:39:13;4.40;;;4.10;;
17398;SDS011;8817;48.170;8.592;2022-10-26T04:41:40;4.03;;;3.93;;
17398;SDS011;8817;48.170;8.592;2022-10-26T04:44:07;4.17;;;3.97;;
17398;SDS011;8817;48.170;8.592;2022-10-26T04:46:35;4.43;;;3.93;;
17398;SDS011;8817;48.170;8.592;2022-10-26T04:49:02;4.30;;;4.10;;
17398;SDS011;8817;48.170;8.592;2022-10-26T04:51:29;4.07;;;3.97;;
17398;SDS011;8817;48.170;8.592;2022-10-26T04:53:56;4.20;;;3.83;;
17398;SDS011;8817;48.170;8.592;2022-10-26T04:56:23;4.50;;;4.30;;
17398;SDS011;8817;48.170;8.592;2022-10-26T04:58:52;4.30;;;4.10;;
17398;SDS011;8817;48.170;8.592;2022-10-26T05:01:19;4.70;;;4.50;;
17398;SDS011;8817;48.170;8.592;2022-10-26T05:03:49;4.83;;;4.60;;
17398;SDS011;8817;48.170;8.592;2022-10-26T05:06:16;5.10;;;4.80;;
17398;SDS011;8817;48.170;8.592;2022-10-26T05:08:43;5.10;;;4.60;;
17398;SDS011;8817;48.170;8.592;2022-10-26T05:11:10;5.23;;;4.93;;
17398;SDS011;8817;48.170;8.592;2022-10-26T05:13:37;5.67;;;5.23;;
17398;SDS011;8817;48.170;8.592;2022-10-26T05:16:04;6.00;;;5.50;;
17398;SDS011;8817;48.170;8.592;2022-10-26T05:18:31;6.57;;;5.10;;
17398;SDS011;8817;48.170;8.592;2022-10-26T05:21:00;6.17;;;5.57;;
17398;SDS011;8817;48.170;8.592;2022-10-26T05:23:26;7.57;;;5.53;;
17398;SDS011;8817;48.170;8.592;2022-10-26T05:25:53;5.30;;;4.90;;
17398;SDS011;8817;48.170;8.592;2022-10-26T05:28:21;6.03;;;5.43;;
17398;SDS011;8817;48.170;8.592;2022-10-26T05:30:48;6.50;;;5.90;;
17398;SDS011;8817;48.170;8.592;2022-10-26T05:33:15;6.30;;;5.80;;
17398;SDS011;8817;48.170;8.592;2022-10-26T05:35:41;6.27;;;5.70;;
17398;SDS011;8817;48.170;8.592;2022-10-26T05:38:11;5.80;;;5.40;;
17398;SDS011;8817;48.170;8.592;2022-10-26T05:40:45;15.13;;;6.00;;
17398;SDS011;8817;48.170;8.592;2022-10-26T05:43:13;6.07;;;5.60;;
17398;SDS011;8817;48.170;8.592;2022-10-26T05:45:39;5.80;;;5.33;;
17398;SDS011;8817;48.170;8.592;2022-10-26T05:48:06;12.07;;;5.90;;
17398;SDS011;8817;48.170;8.592;2022-10-26T05:50:33;6.10;;;5.50;;
17398;SDS011;8817;48.170;8.592;2022-10-26T05:53:00;8.00;;;6.07;;
17398;SDS011;8817;48.170;8.592;2022-10-26T05:55:29;10.02;;;6.07;;
17398;SDS011;8817;48.170;8.592;2022-10-26T05:57:57;6.82;;;6.15;;
17398;SDS011;8817;48.170;8.592;2022-10-26T06:00:25;6.30;;;5.60;;
17398;SDS011;8817;48.170;8.592;2022-10-26T06:03:00;6.40;;;5.77;;
17398;SDS011;8817;48.170;8.592;2022-10-26T06:05:44;6.93;;;6.13;;
17398;SDS011;8817;48.170;8.592;2022-10-26T06:08:16;6.17;;;5.47;;
17398;SDS011;8817;48.170;8.592;2022-10-26T06:10:45;6.83;;;6.20;;
17398;SDS011;8817;48.170;8.592;2022-10-26T06:13:13;10.23;;;6.63;;
17398;SDS011;8817;48.170;8.592;2022-10-26T06:15:42;5.97;;;5.47;;
17398;SDS011;8817;48.170;8.592;2022-10-26T06:18:18;7.43;;;6.23;;
17398;SDS011;8817;48.170;8.592;2022-10-26T06:20:53;7.27;;;5.83;;
17398;SDS011;8817;48.170;8.592;2022-10-26T06:23:37;6.83;;;6.13;;
17398;SDS011;8817;48.170;8.592;2022-10-26T06:26:11;6.53;;;5.83;;
17398;SDS011;8817;48.170;8.592;2022-10-26T06:28:49;7.90;;;6.53;;
17398;SDS011;8817;48.170;8.592;2022-10-26T06:31:25;6.10;;;5.50;;
17398;SDS011;8817;48.170;8.592;2022-10-26T06:33:54;7.30;;;6.17;;
17398;SDS011;8817;48.170;8.592;2022-10-26T06:36:24;6.13;;;5.53;;
17398;SDS011;8817;48.170;8.592;2022-10-26T06:38:53;8.20;;;6.13;;
17398;SDS011;8817;48.170;8.592;2022-10-26T06:41:25;6.73;;;5.50;;
17398;SDS011;8817;48.170;8.592;2022-10-26T06:43:52;5.73;;;5.20;;
17398;SDS011;8817;48.170;8.592;2022-10-26T06:46:24;6.47;;;5.50;;
17398;SDS011;8817;48.170;8.592;2022-10-26T06:48:57;5.93;;;5.33;;
17398;SDS011;8817;48.170;8.592;2022-10-26T06:51:28;5.23;;;4.83;;
17398;SDS011;8817;48.170;8.592;2022-10-26T06:53:58;6.17;;;5.60;;
17398;SDS011;8817;48.170;8.592;2022-10-26T06:56:32;5.70;;;5.23;;
17398;SDS011;8817;48.170;8.592;2022-10-26T06:59:02;5.40;;;5.00;;
17398;SDS011;8817;48.170;8.592;2022-10-26T07:01:33;5.20;;;4.80;;
17398;SDS011;8817;48.170;8.592;2022-10-26T07:04:00;5.97;;;5.10;;
17398;SDS011;8817;48.170;8.592;2022-10-26T07:06:27;8.87;;;5.47;;
17398;SDS011;8817;48.170;8.592;2022-10-26T07:08:54;7.00;;;4.95;;
17398;SDS011;8817;48.170;8.592;2022-10-26T07:11:21;5.37;;;4.97;;
17398;SDS011;8817;48.170;8.592;2022-10-26T07:13:49;5.10;;;4.70;;
17398;SDS011;8817;48.170;8.592;2022-10-26T07:16:16;5.68;;;4.97;;
17398;SDS011;8817;48.170;8.592;2022-10-26T07:18:43;8.80;;;5.47;;
17398;SDS011;8817;48.170;8.592;2022-10-26T07:21:11;5.45;;;4.95;;
17398;SDS011;8817;48.170;8.592;2022-10-26T07:23:38;5.03;;;4.63;;
17398;SDS011;8817;48.170;8.592;2022-10-26T07:26:05;6.90;;;4.83;;
17398;SDS011;8817;48.170;8.592;2022-10-26T07:28:32;4.93;;;4.63;;
17398;SDS011;8817;48.170;8.592;2022-10-26T07:31:01;5.20;;;4.70;;
17398;SDS011;8817;48.170;8.592;2022-10-26T07:33:29;8.43;;;4.57;;
17398;SDS011;8817;48.170;8.592;2022-10-26T07:35:57;5.35;;;4.85;;
17398;SDS011;8817;48.170;8.592;2022-10-26T07:38:24;5.00;;;4.70;;
17398;SDS011;8817;48.170;8.592;2022-10-26T07:40:51;5.23;;;4.80;;
17398;SDS011;8817;48.170;8.592;2022-10-26T07:43:18;6.22;;;4.60;;
17398;SDS011;8817;48.170;8.592;2022-10-26T07:45:47;4.97;;;4.55;;
17398;SDS011;8817;48.170;8.592;2022-10-26T07:48:16;5.38;;;4.70;;
17398;SDS011;8817;48.170;8.592;2022-10-26T07:50:43;4.65;;;4.35;;
17398;SDS011;8817;48.170;8.592;2022-10-26T07:53:09;5.10;;;4.70;;
17398;SDS011;8817;48.170;8.592;2022-10-26T07:55:36;4.88;;;4.43;;
17398;SDS011;8817;48.170;8.592;2022-10-26T07:58:03;5.00;;;4.57;;
17398;SDS011;8817;48.170;8.592;2022-10-26T08:00:30;4.80;;;4.30;;
17398;SDS011;8817;48.170;8.592;2022-10-26T08:02:57;5.43;;;4.75;;
17398;SDS011;8817;48.170;8.592;2022-10-26T08:05:25;4.75;;;4.45;;
17398;SDS011;8817;48.170;8.592;2022-10-26T08:07:52;4.40;;;4.20;;
17398;SDS011;8817;48.170;8.592;2022-10-26T08:10:19;4.53;;;4.20;;
17398;SDS011;8817;48.170;8.592;2022-10-26T08:12:46;5.22;;;4.72;;
17398;SDS011;8817;48.170;8.592;2022-10-26T08:15:13;4.85;;;4.45;;
17398;SDS011;8817;48.170;8.592;2022-10-26T08:17:40;5.53;;;4.60;;
17398;SDS011;8817;48.170;8.592;2022-10-26T08:20:07;4.75;;;4.45;;
17398;SDS011;8817;48.170;8.592;2022-10-26T08:22:36;4.93;;;4.53;;
17398;SDS011;8817;48.170;8.592;2022-10-26T08:25:03;7.53;;;4.65;;
17398;SDS011;8817;48.170;8.592;2022-10-26T08:27:30;4.90;;;4.50;;
17398;SDS011;8817;48.170;8.592;2022-10-26T08:29:57;5.63;;;4.97;;
17398;SDS011;8817;48.170;8.592;2022-10-26T08:32:24;5.32;;;4.80;;
17398;SDS011;8817;48.170;8.592;2022-10-26T08:34:51;5.30;;;4.80;;
17398;SDS011;8817;48.170;8.592;2022-10-26T08:37:18;4.95;;;4.50;;
17398;SDS011;8817;48.170;8.592;2022-10-26T08:39:46;4.75;;;4.43;;
17398;SDS011;8817;48.170;8.592;2022-10-26T08:42:18;5.43;;;5.00;;
17398;SDS011;8817;48.170;8.592;2022-10-26T08:44:50;9.00;;;4.82;;
17398;SDS011;8817;48.170;8.592;2022-10-26T08:47:25;4.95;;;4.55;;
17398;SDS011;8817;48.170;8.592;2022-10-26T08:49:58;6.75;;;4.72;;
17398;SDS011;8817;48.170;8.592;2022-10-26T08:52:29;5.40;;;4.90;;
17398;SDS011;8817;48.170;8.592;2022-10-26T08:55:03;5.15;;;4.75;;
17398;SDS011;8817;48.170;8.592;2022-10-26T08:57:37;6.93;;;5.05;;
17398;SDS011;8817;48.170;8.592;2022-10-26T09:00:09;4.97;;;4.50;;
17398;SDS011;8817;48.170;8.592;2022-10-26T09:02:39;7.03;;;4.85;;
17398;SDS011;8817;48.170;8.592;2022-10-26T09:05:08;5.00;;;4.60;;
17398;SDS011;8817;48.170;8.592;2022-10-26T09:07:43;5.28;;;4.88;;
17398;SDS011;8817;48.170;8.592;2022-10-26T09:10:19;5.03;;;4.72;;
17398;SDS011;8817;48.170;8.592;2022-10-26T09:12:58;4.68;;;4.43;;
17398;SDS011;8817;48.170;8.592;2022-10-26T09:15:33;6.25;;;4.90;;
17398;SDS011;8817;48.170;8.592;2022-10-26T09:18:14;4.80;;;4.45;;
17398;SDS011;8817;48.170;8.592;2022-10-26T09:20:55;4.43;;;4.22;;
17398;SDS011;8817;48.170;8.592;2022-10-26T09:23:38;4.78;;;4.47;;
17398;SDS011;8817;48.170;8.592;2022-10-26T09:26:24;4.60;;;4.25;;
17398;SDS011;8817;48.170;8.592;2022-10-26T09:28:55;4.68;;;4.28;;
17398;SDS011;8817;48.170;8.592;2022-10-26T09:31:26;4.55;;;4.20;;
17398;SDS011;8817;48.170;8.592;2022-10-26T09:33:55;4.30;;;4.00;;
17398;SDS011;8817;48.170;8.592;2022-10-26T09:36:22;6.43;;;4.22;;
17398;SDS011;8817;48.170;8.592;2022-10-26T09:38:50;4.57;;;4.20;;
17398;SDS011;8817;48.170;8.592;2022-10-26T09:41:25;4.65;;;4.45;;
17398;SDS011;8817;48.170;8.592;2022-10-26T09:43:57;7.55;;;4.60;;
17398;SDS011;8817;48.170;8.592;2022-10-26T09:46:31;4.80;;;4.40;;
17398;SDS011;8817;48.170;8.592;2022-10-26T09:49:04;4.00;;;3.80;;
17398;SDS011;8817;48.170;8.592;2022-10-26T09:51:33;4.32;;;3.97;;
17398;SDS011;8817;48.170;8.592;2022-10-26T09:54:04;5.35;;;4.50;;
17398;SDS011;8817;48.170;8.592;2022-10-26T09:56:39;4.32;;;4.10;;
17398;SDS011;8817;48.170;8.592;2022-10-26T09:59:08;4.97;;;4.47;;
17398;SDS011;8817;48.170;8.592;2022-10-26T10:01:37;4.65;;;4.20;;
17398;SDS011;8817;48.170;8.592;2022-10-26T10:04:15;5.00;;;4.50;;
17398;SDS011;8817;48.170;8.592;2022-10-26T10:06:45;4.45;;;4.05;;
17398;SDS011;8817;48.170;8.592;2022-10-26T10:09:14;3.80;;;3.60;;
17398;SDS011;8817;48.170;8.592;2022-10-26T10:11:44;4.40;;;4.00;;
17398;SDS011;8817;48.170;8.592;2022-10-26T10:14:19;3.92;;;3.60;;
17398;SDS011;8817;48.170;8.592;2022-10-26T10:16:52;4.05;;;3.75;;
17398;SDS011;8817;48.170;8.592;2022-10-26T10:19:21;4.55;;;4.25;;
17398;SDS011;8817;48.170;8.592;2022-10-26T10:21:50;4.50;;;4.30;;
17398;SDS011;8817;48.170;8.592;2022-10-26T10:24:21;4.18;;;3.97;;
17398;SDS011;8817;48.170;8.592;2022-10-26T10:27:01;6.07;;;3.58;;
17398;SDS011;8817;48.170;8.592;2022-10-26T10:29:30;3.70;;;3.60;;
17398;SDS011;8817;48.170;8.592;2022-10-26T10:31:58;4.35;;;3.95;;
17398;SDS011;8817;48.170;8.592;2022-10-26T10:34:29;4.07;;;3.78;;
17398;SDS011;8817;48.170;8.592;2022-10-26T10:36:57;4.32;;;3.95;;
17398;SDS011;8817;48.170;8.592;2022-10-26T10:39:32;4.22;;;3.80;;
17398;SDS011;8817;48.170;8.592;2022-10-26T10:42:05;4.95;;;3.72;;
17398;SDS011;8817;48.170;8.592;2022-10-26T10:44:40;10.02;;;4.00;;
17398;SDS011;8817;48.170;8.592;2022-10-26T10:47:15;4.00;;;3.80;;
17398;SDS011;8817;48.170;8.592;2022-10-26T10:49:49;4.80;;;4.40;;
17398;SDS011;8817;48.170;8.592;2022-10-26T10:52:26;4.15;;;3.92;;
17398;SDS011;8817;48.170;8.592;2022-10-26T10:54:57;6.15;;;4.10;;
17398;SDS011;8817;48.170;8.592;2022-10-26T10:57:38;5.95;;;3.97;;
17398;SDS011;8817;48.170;8.592;2022-10-26T11:00:14;4.78;;;4.20;;
17398;SDS011;8817;48.170;8.592;2022-10-26T11:02:53;4.60;;;4.20;;
17398;SDS011;8817;48.170;8.592;2022-10-26T11:05:37;5.40;;;4.22;;
17398;SDS011;8817;48.170;8.592;2022-10-26T11:08:19;5.15;;;4.10;;
17398;SDS011;8817;48.170;8.592;2022-10-26T11:10:52;4.43;;;3.85;;
17398;SDS011;8817;48.170;8.592;2022-10-26T11:13:28;5.32;;;3.75;;
17398;SDS011;8817;48.170;8.592;2022-10-26T11:16:00;4.47;;;4.28;;
17398;SDS011;8817;48.170;8.592;2022-10-26T11:18:32;4.25;;;4.05;;
17398;SDS011;8817;48.170;8.592;2022-10-26T11:21:03;6.82;;;4.15;;
17398;SDS011;8817;48.170;8.592;2022-10-26T11:23:44;4.03;;;3.75;;
17398;SDS011;8817;48.170;8.592;2022-10-26T11:26:16;4.47;;;3.83;;
17398;SDS011;8817;48.170;8.592;2022-10-26T11:28:52;4.47;;;3.85;;
17398;SDS011;8817;48.170;8.592;2022-10-26T11:31:24;7.93;;;3.85;;
17398;SDS011;8817;48.170;8.592;2022-10-26T11:34:00;4.22;;;3.90;;
17398;SDS011;8817;48.170;8.592;2022-10-26T11:36:42;3.83;;;3.63;;
17398;SDS011;8817;48.170;8.592;2022-10-26T11:39:15;6.07;;;3.88;;
17398;SDS011;8817;48.170;8.592;2022-10-26T11:41:48;3.90;;;3.70;;
17398;SDS011;8817;48.170;8.592;2022-10-26T11:44:21;8.05;;;4.00;;
17398;SDS011;8817;48.170;8.592;2022-10-26T11:46:54;5.38;;;3.67;;
17398;SDS011;8817;48.170;8.592;2022-10-26T11:49:27;6.00;;;3.72;;
17398;SDS011;8817;48.170;8.592;2022-10-26T11:52:01;4.18;;;3.90;;
17398;SDS011;8817;48.170;8.592;2022-10-26T11:54:34;5.93;;;4.13;;
17398;SDS011;8817;48.170;8.592;2022-10-26T11:57:05;6.90;;;4.10;;
17398;SDS011;8817;48.170;8.592;2022-10-26T11:59:36;5.70;;;4.00;;
17398;SDS011;8817;48.170;8.592;2022-10-26T12:02:09;5.90;;;4.00;;
17398;SDS011;8817;48.170;8.592;2022-10-26T12:04:40;9.15;;;3.55;;
17398;SDS011;8817;48.170;8.592;2022-10-26T12:07:12;5.90;;;3.90;;
17398;SDS011;8817;48.170;8.592;2022-10-26T12:09:45;4.07;;;3.70;;
17398;SDS011;8817;48.170;8.592;2022-10-26T12:12:13;4.78;;;4.38;;
17398;SDS011;8817;48.170;8.592;2022-10-26T12:14:48;4.53;;;3.70;;
17398;SDS011;8817;48.170;8.592;2022-10-26T12:17:23;4.13;;;3.80;;
17398;SDS011;8817;48.170;8.592;2022-10-26T12:19:56;7.22;;;3.85;;
17398;SDS011;8817;48.170;8.592;2022-10-26T12:22:30;4.38;;;3.90;;
17398;SDS011;8817;48.170;8.592;2022-10-26T12:25:06;5.03;;;3.58;;
17398;SDS011;8817;48.170;8.592;2022-10-26T12:27:48;4.40;;;3.97;;
17398;SDS011;8817;48.170;8.592;2022-10-26T12:30:26;8.90;;;3.80;;
17398;SDS011;8817;48.170;8.592;2022-10-26T12:32:55;6.00;;;4.20;;
17398;SDS011;8817;48.170;8.592;2022-10-26T12:35:34;9.65;;;3.90;;
17398;SDS011;8817;48.170;8.592;2022-10-26T12:41:17;5.43;;;3.90;;
17398;SDS011;8817;48.170;8.592;2022-10-26T12:43:46;4.55;;;4.10;;
17398;SDS011;8817;48.170;8.592;2022-10-26T12:55:19;3.72;;;3.63;;
17398;SDS011;8817;48.170;8.592;2022-10-26T12:58:03;5.28;;;3.80;;
17398;SDS011;8817;48.170;8.592;2022-10-26T13:04:15;4.38;;;3.80;;
17398;SDS011;8817;48.170;8.592;2022-10-26T13:06:58;4.15;;;3.85;;
17398;SDS011;8817;48.170;8.592;2022-10-26T13:09:38;8.38;;;3.85;;
17398;SDS011;8817;48.170;8.592;2022-10-26T13:12:09;9.77;;;4.05;;
17398;SDS011;8817;48.170;8.592;2022-10-26T13:14:37;4.60;;;4.10;;
17398;SDS011;8817;48.170;8.592;2022-10-26T13:17:22;4.03;;;3.70;;
17398;SDS011;8817;48.170;8.592;2022-10-26T13:19:55;4.22;;;3.88;;
17398;SDS011;8817;48.170;8.592;2022-10-26T13:22:24;4.45;;;3.80;;
17398;SDS011;8817;48.170;8.592;2022-10-26T13:24:52;4.70;;;4.05;;
17398;SDS011;8817;48.170;8.592;2022-10-26T13:27:39;4.00;;;3.50;;
17398;SDS011;8817;48.170;8.592;2022-10-26T13:30:18;4.22;;;3.92;;
17398;SDS011;8817;48.170;8.592;2022-10-26T13:33:15;8.77;;;4.05;;
17398;SDS011;8817;48.170;8.592;2022-10-26T13:35:47;5.25;;;4.00;;
17398;SDS011;8817;48.170;8.592;2022-10-26T13:38:17;4.15;;;3.83;;
17398;SDS011;8817;48.170;8.592;2022-10-26T13:40:47;9.82;;;3.90;;
17398;SDS011;8817;48.170;8.592;2022-10-26T13:43:18;6.55;;;4.30;;
17398;SDS011;8817;48.170;8.592;2022-10-26T13:45:49;4.30;;;3.92;;
17398;SDS011;8817;48.170;8.592;2022-10-26T13:48:22;4.50;;;3.90;;
17398;SDS011;8817;48.170;8.592;2022-10-26T13:50:58;6.28;;;3.80;;
17398;SDS011;8817;48.170;8.592;2022-10-26T13:53:30;8.23;;;3.92;;
17398;SDS011;8817;48.170;8.592;2022-10-26T13:56:05;5.95;;;3.58;;
17398;SDS011;8817;48.170;8.592;2022-10-26T13:58:41;4.30;;;3.75;;
17398;SDS011;8817;48.170;8.592;2022-10-26T14:01:14;4.28;;;3.88;;
17398;SDS011;8817;48.170;8.592;2022-10-26T14:03:45;4.30;;;3.80;;
17398;SDS011;8817;48.170;8.592;2022-10-26T14:06:16;4.97;;;3.88;;
17398;SDS011;8817;48.170;8.592;2022-10-26T14:08:47;4.03;;;3.70;;
17398;SDS011;8817;48.170;8.592;2022-10-26T14:11:17;4.13;;;3.78;;
17398;SDS011;8817;48.170;8.592;2022-10-26T14:13:46;4.18;;;3.97;;
17398;SDS011;8817;48.170;8.592;2022-10-26T14:16:15;3.72;;;3.53;;
17398;SDS011;8817;48.170;8.592;2022-10-26T14:18:44;3.88;;;3.50;;
17398;SDS011;8817;48.170;8.592;2022-10-26T14:21:13;5.25;;;3.53;;
17398;SDS011;8817;48.170;8.592;2022-10-26T14:23:45;9.63;;;3.58;;
17398;SDS011;8817;48.170;8.592;2022-10-26T14:26:20;4.55;;;3.63;;
17398;SDS011;8817;48.170;8.592;2022-10-26T14:28:50;7.13;;;3.78;;
17398;SDS011;8817;48.170;8.592;2022-10-26T14:31:20;4.47;;;3.88;;
17398;SDS011;8817;48.170;8.592;2022-10-26T14:33:49;3.70;;;3.60;;
17398;SDS011;8817;48.170;8.592;2022-10-26T14:36:18;6.65;;;3.30;;
17398;SDS011;8817;48.170;8.592;2022-10-26T14:38:48;5.63;;;3.70;;
17398;SDS011;8817;48.170;8.592;2022-10-26T14:41:19;4.10;;;3.80;;
17398;SDS011;8817;48.170;8.592;2022-10-26T14:43:47;5.43;;;3.50;;
17398;SDS011;8817;48.170;8.592;2022-10-26T14:46:15;6.47;;;3.50;;
17398;SDS011;8817;48.170;8.592;2022-10-26T14:48:49;6.47;;;3.50;;
17398;SDS011;8817;48.170;8.592;2022-10-26T14:51:20;8.93;;;3.42;;
17398;SDS011;8817;48.170;8.592;2022-10-26T14:53:51;5.70;;;3.55;;
17398;SDS011;8817;48.170;8.592;2022-10-26T14:56:21;3.88;;;3.58;;
17398;SDS011;8817;48.170;8.592;2022-10-26T14:58:50;4.13;;;3.30;;
17398;SDS011;8817;48.170;8.592;2022-10-26T15:04:21;4.05;;;3.78;;
17398;SDS011;8817;48.170;8.592;2022-10-26T15:07:01;4.20;;;3.35;;
17398;SDS011;8817;48.170;8.592;2022-10-26T15:09:41;9.27;;;3.40;;
17398;SDS011;8817;48.170;8.592;2022-10-26T15:12:19;4.43;;;3.20;;
17398;SDS011;8817;48.170;8.592;2022-10-26T15:14:48;3.40;;;3.20;;
17398;SDS011;8817;48.170;8.592;2022-10-26T15:17:18;6.38;;;3.50;;
17398;SDS011;8817;48.170;8.592;2022-10-26T15:19:49;6.53;;;3.53;;
17398;SDS011;8817;48.170;8.592;2022-10-26T15:22:23;4.30;;;3.10;;
17398;SDS011;8817;48.170;8.592;2022-10-26T15:24:53;7.05;;;3.50;;
17398;SDS011;8817;48.170;8.592;2022-10-26T15:27:23;3.83;;;3.20;;
17398;SDS011;8817;48.170;8.592;2022-10-26T15:29:51;3.58;;;3.30;;
17398;SDS011;8817;48.170;8.592;2022-10-26T15:32:33;3.40;;;3.30;;
17398;SDS011;8817;48.170;8.592;2022-10-26T15:37:58;5.90;;;3.80;;
17398;SDS011;8817;48.170;8.592;2022-10-26T15:40:26;5.50;;;3.70;;
17398;SDS011;8817;48.170;8.592;2022-10-26T15:42:54;3.95;;;3.75;;
17398;SDS011;8817;48.170;8.592;2022-10-26T15:45:25;5.00;;;3.85;;
17398;SDS011;8817;48.170;8.592;2022-10-26T15:47:54;7.82;;;5.70;;
17398;SDS011;8817;48.170;8.592;2022-10-26T15:50:23;4.40;;;4.00;;